createdAt,value
2017-12-13T00:00:14.525Z,998.99
2017-12-13T00:01:14.492Z,999.01
2017-12-13T00:02:14.481Z,999.04
2017-12-13T00:03:14.512Z,999.02
2017-12-13T00:04:14.444Z,999.04
2017-12-13T00:05:14.442Z,999.05
2017-12-13T00:06:14.411Z,999.07
2017-12-13T00:07:14.386Z,999.12
2017-12-13T00:08:14.374Z,999.11
2017-12-13T00:09:14.409Z,999.09
2017-12-13T00:10:14.345Z,999.11
2017-12-13T00:11:14.311Z,999.14
2017-12-13T00:12:14.299Z,999.10
2017-12-13T00:13:14.299Z,999.12
2017-12-13T00:14:14.265Z,999.11
2017-12-13T00:15:14.270Z,999.11
2017-12-13T00:16:14.217Z,999.13
2017-12-13T00:17:14.217Z,999.09
2017-12-13T00:18:14.196Z,999.14
2017-12-13T00:19:14.165Z,999.09
2017-12-13T00:20:14.190Z,999.11
2017-12-13T00:21:14.143Z,999.10
2017-12-13T00:22:14.111Z,999.08
2017-12-13T00:23:14.109Z,999.06
2017-12-13T00:24:14.100Z,999.05
2017-12-13T00:25:14.139Z,999.04
2017-12-13T00:26:14.058Z,999.03
2017-12-13T00:27:14.029Z,999.04
2017-12-13T00:28:14.025Z,999.01
2017-12-13T00:29:13.993Z,998.98
2017-12-13T00:30:13.973Z,998.93
2017-12-13T00:31:13.990Z,998.99
2017-12-13T00:32:13.952Z,998.94
2017-12-13T00:33:13.951Z,998.90
2017-12-13T00:34:13.919Z,998.88
2017-12-13T00:35:13.958Z,998.91
2017-12-13T00:36:13.868Z,998.93
2017-12-13T00:37:13.849Z,998.91
2017-12-13T00:38:13.830Z,998.87
2017-12-13T00:39:13.822Z,998.85
2017-12-13T00:40:13.798Z,998.84
2017-12-13T00:41:13.838Z,998.84
2017-12-13T00:42:13.762Z,998.78
2017-12-13T00:43:13.742Z,998.81
2017-12-13T00:44:13.747Z,998.85
2017-12-13T00:45:13.724Z,998.80
2017-12-13T00:46:13.714Z,998.78
2017-12-13T00:47:13.704Z,998.77
2017-12-13T00:48:13.662Z,998.68
2017-12-13T00:49:13.663Z,998.73
2017-12-13T00:50:13.639Z,998.71
2017-12-13T00:51:13.623Z,998.70
2017-12-13T00:52:13.633Z,998.69
2017-12-13T00:53:13.587Z,998.68
2017-12-13T00:54:13.566Z,998.69
2017-12-13T00:55:13.534Z,998.72
2017-12-13T00:56:13.514Z,998.69
2017-12-13T00:57:13.572Z,998.66
2017-12-13T00:58:13.495Z,998.63
2017-12-13T00:59:13.482Z,998.65
2017-12-13T01:00:13.461Z,998.63
2017-12-13T01:01:13.427Z,998.64
2017-12-13T01:02:13.408Z,998.63
2017-12-13T01:03:13.460Z,998.61
2017-12-13T01:04:13.387Z,998.69
2017-12-13T01:05:13.358Z,998.64
2017-12-13T01:06:13.345Z,998.67
2017-12-13T01:07:13.327Z,998.67
2017-12-13T01:08:13.301Z,998.63
2017-12-13T01:09:13.321Z,998.64
2017-12-13T01:10:13.283Z,998.67
2017-12-13T01:11:13.262Z,998.70
2017-12-13T01:12:13.235Z,998.64
2017-12-13T01:13:13.228Z,998.68
2017-12-13T01:14:13.274Z,998.52
2017-12-13T01:15:13.203Z,998.55
2017-12-13T01:16:13.173Z,998.57
2017-12-13T01:17:13.148Z,998.55
2017-12-13T01:18:13.128Z,998.57
2017-12-13T01:19:13.108Z,998.57
2017-12-13T01:20:13.149Z,998.53
2017-12-13T01:21:13.090Z,998.59
2017-12-13T01:22:13.067Z,998.55
2017-12-13T01:23:13.038Z,998.52
2017-12-13T01:24:13.044Z,998.53
2017-12-13T01:25:13.006Z,998.51
2017-12-13T01:26:13.051Z,998.50
2017-12-13T01:27:12.983Z,998.45
2017-12-13T01:28:12.970Z,998.41
2017-12-13T01:29:12.939Z,998.44
2017-12-13T01:30:12.916Z,998.45
2017-12-13T01:31:12.905Z,998.42
2017-12-13T01:32:12.941Z,998.40
2017-12-13T01:33:12.881Z,998.42
2017-12-13T01:34:12.860Z,998.45
2017-12-13T01:35:12.828Z,998.42
2017-12-13T01:36:12.806Z,998.40
2017-12-13T01:37:12.796Z,998.41
2017-12-13T01:38:12.819Z,998.39
2017-12-13T01:39:12.760Z,998.40
2017-12-13T01:40:12.765Z,998.37
2017-12-13T01:41:12.739Z,998.37
2017-12-13T01:42:12.713Z,998.36
2017-12-13T01:43:12.732Z,998.40
2017-12-13T01:44:12.680Z,998.40
2017-12-13T01:45:12.659Z,998.40
2017-12-13T01:46:12.646Z,998.38
2017-12-13T01:47:12.639Z,998.34
2017-12-13T01:48:12.663Z,998.34
2017-12-13T01:49:12.593Z,998.32
2017-12-13T01:50:12.574Z,998.32
2017-12-13T01:51:12.560Z,998.34
2017-12-13T01:52:12.533Z,998.34
2017-12-13T01:53:12.523Z,998.28
2017-12-13T01:54:12.545Z,998.27
2017-12-13T01:55:12.492Z,998.27
2017-12-13T01:56:12.481Z,998.29
2017-12-13T01:57:12.459Z,998.24
2017-12-13T01:58:12.470Z,998.20
2017-12-13T01:59:12.485Z,998.19
2017-12-13T02:00:12.392Z,998.21
2017-12-13T02:01:12.391Z,998.15
2017-12-13T02:02:12.373Z,998.14
2017-12-13T02:03:12.357Z,998.10
2017-12-13T02:04:12.339Z,998.07
2017-12-13T02:05:12.351Z,998.09
2017-12-13T02:06:12.301Z,998.06
2017-12-13T02:07:12.287Z,998.10
2017-12-13T02:08:12.263Z,998.07
2017-12-13T02:09:12.248Z,998.03
2017-12-13T02:10:12.223Z,998.02
2017-12-13T02:11:12.236Z,997.96
2017-12-13T02:12:12.179Z,997.92
2017-12-13T02:13:12.173Z,997.94
2017-12-13T02:14:12.147Z,997.93
2017-12-13T02:15:12.159Z,997.92
2017-12-13T02:16:12.183Z,997.94
2017-12-13T02:17:12.109Z,997.92
2017-12-13T02:18:12.090Z,997.85
2017-12-13T02:19:12.062Z,997.82
2017-12-13T02:20:12.053Z,997.79
2017-12-13T02:21:12.040Z,997.82
2017-12-13T02:22:12.046Z,997.83
2017-12-13T02:23:11.998Z,997.83
2017-12-13T02:24:11.976Z,997.77
2017-12-13T02:25:11.962Z,997.78
2017-12-13T02:26:11.939Z,997.72
2017-12-13T02:27:11.959Z,997.75
2017-12-13T02:28:11.913Z,997.78
2017-12-13T02:29:11.886Z,997.73
2017-12-13T02:30:11.862Z,997.71
2017-12-13T02:31:11.859Z,997.70
2017-12-13T02:32:11.893Z,997.65
2017-12-13T02:33:11.826Z,997.65
2017-12-13T02:34:11.846Z,997.59
2017-12-13T02:35:11.790Z,997.60
2017-12-13T02:36:11.795Z,997.55
2017-12-13T02:37:11.748Z,997.55
2017-12-13T02:38:11.803Z,997.59
2017-12-13T02:39:11.714Z,997.53
2017-12-13T02:40:11.699Z,997.50
2017-12-13T02:41:11.678Z,997.51
2017-12-13T02:42:11.650Z,997.49
2017-12-13T02:43:11.671Z,997.45
2017-12-13T02:44:11.686Z,997.42
2017-12-13T02:45:11.596Z,997.43
2017-12-13T02:46:11.577Z,997.47
2017-12-13T02:47:11.560Z,997.45
2017-12-13T02:48:11.539Z,997.39
2017-12-13T02:49:11.529Z,997.43
2017-12-13T02:50:11.584Z,997.40
2017-12-13T02:51:11.513Z,997.48
2017-12-13T02:52:11.474Z,997.33
2017-12-13T02:53:11.476Z,997.37
2017-12-13T02:54:11.448Z,997.40
2017-12-13T02:55:11.469Z,997.39
2017-12-13T02:56:11.467Z,997.35
2017-12-13T02:57:11.393Z,997.40
2017-12-13T02:58:11.383Z,997.35
2017-12-13T02:59:11.343Z,997.34
2017-12-13T03:00:11.347Z,997.35
2017-12-13T03:01:11.337Z,997.35
2017-12-13T03:02:11.365Z,997.35
2017-12-13T03:03:11.277Z,997.34
2017-12-13T03:04:11.282Z,997.31
2017-12-13T03:05:11.258Z,997.32
2017-12-13T03:06:11.246Z,997.22
2017-12-13T03:07:11.213Z,997.22
2017-12-13T03:08:11.260Z,997.20
2017-12-13T03:09:11.175Z,997.20
2017-12-13T03:10:11.162Z,997.16
2017-12-13T03:11:11.144Z,997.15
2017-12-13T03:12:11.128Z,997.22
2017-12-13T03:13:11.121Z,997.17
2017-12-13T03:14:11.155Z,997.16
2017-12-13T03:15:11.066Z,997.16
2017-12-13T03:16:11.051Z,997.17
2017-12-13T03:17:11.036Z,997.18
2017-12-13T03:18:11.020Z,997.17
2017-12-13T03:19:10.998Z,997.14
2017-12-13T03:20:11.060Z,997.12
2017-12-13T03:21:10.967Z,997.16
2017-12-13T03:22:10.951Z,997.15
2017-12-13T03:23:10.921Z,997.14
2017-12-13T03:24:10.909Z,997.14
2017-12-13T03:25:10.901Z,997.14
2017-12-13T03:26:10.935Z,997.07
2017-12-13T03:27:10.854Z,997.06
2017-12-13T03:28:10.835Z,997.05
2017-12-13T03:29:10.815Z,997.05
2017-12-13T03:30:10.834Z,996.99
2017-12-13T03:31:10.802Z,996.96
2017-12-13T03:32:10.821Z,996.93
2017-12-13T03:33:10.777Z,996.95
2017-12-13T03:34:10.732Z,996.96
2017-12-13T03:35:10.774Z,996.98
2017-12-13T03:36:10.705Z,997.01
2017-12-13T03:37:10.685Z,996.99
2017-12-13T03:38:10.651Z,996.93
2017-12-13T03:39:10.657Z,996.92
2017-12-13T03:40:10.624Z,996.91
2017-12-13T03:41:10.636Z,996.93
2017-12-13T03:42:10.587Z,996.92
2017-12-13T03:43:10.574Z,996.91
2017-12-13T03:44:10.561Z,996.87
2017-12-13T03:45:10.558Z,996.88
2017-12-13T03:46:10.565Z,996.91
2017-12-13T03:47:10.494Z,996.92
2017-12-13T03:48:10.474Z,996.90
2017-12-13T03:49:10.463Z,996.85
2017-12-13T03:50:10.454Z,996.85
2017-12-13T03:51:10.422Z,996.79
2017-12-13T03:52:10.440Z,996.81
2017-12-13T03:53:10.390Z,996.86
2017-12-13T03:54:10.384Z,996.78
2017-12-13T03:55:10.354Z,996.82
2017-12-13T03:56:10.330Z,996.76
2017-12-13T03:57:10.349Z,996.77
2017-12-13T03:58:10.310Z,996.75
2017-12-13T03:59:10.298Z,996.81
2017-12-13T04:00:10.287Z,996.75
2017-12-13T04:01:10.237Z,996.87
2017-12-13T04:02:10.268Z,996.80
2017-12-13T04:03:10.224Z,996.81
2017-12-13T04:04:10.188Z,996.81
2017-12-13T04:05:10.186Z,996.72
2017-12-13T04:06:10.162Z,996.75
2017-12-13T04:07:10.205Z,996.67
2017-12-13T04:08:10.124Z,996.68
2017-12-13T04:09:10.098Z,996.60
2017-12-13T04:10:10.079Z,996.66
2017-12-13T04:11:10.060Z,996.67
2017-12-13T04:12:10.062Z,996.59
2017-12-13T04:13:10.059Z,996.66
2017-12-13T04:14:10.018Z,996.64
2017-12-13T04:15:10.011Z,996.62
2017-12-13T04:16:09.987Z,996.64
2017-12-13T04:17:10.009Z,996.66
2017-12-13T04:18:09.954Z,996.61
2017-12-13T04:19:09.936Z,996.56
2017-12-13T04:20:09.916Z,996.55
2017-12-13T04:21:09.889Z,996.55
2017-12-13T04:22:09.934Z,996.43
2017-12-13T04:23:09.867Z,996.47
2017-12-13T04:24:09.852Z,996.43
2017-12-13T04:25:09.830Z,996.39
2017-12-13T04:26:09.805Z,996.37
2017-12-13T04:27:09.788Z,996.28
2017-12-13T04:28:09.835Z,996.30
2017-12-13T04:29:09.758Z,996.30
2017-12-13T04:30:09.737Z,996.31
2017-12-13T04:31:09.714Z,996.26
2017-12-13T04:32:09.704Z,996.27
2017-12-13T04:33:09.691Z,996.24
2017-12-13T04:34:09.737Z,996.25
2017-12-13T04:35:09.652Z,996.29
2017-12-13T04:36:09.619Z,996.30
2017-12-13T04:37:09.612Z,996.30
2017-12-13T04:38:09.616Z,996.26
2017-12-13T04:39:09.563Z,996.25
2017-12-13T04:40:09.597Z,996.23
2017-12-13T04:41:09.536Z,996.18
2017-12-13T04:42:09.516Z,996.25
2017-12-13T04:43:09.527Z,996.17
2017-12-13T04:44:09.543Z,996.21
2017-12-13T04:45:09.480Z,996.12
2017-12-13T04:46:09.502Z,996.15
2017-12-13T04:47:09.428Z,996.10
2017-12-13T04:48:09.415Z,996.09
2017-12-13T04:49:09.388Z,996.10
2017-12-13T04:50:09.372Z,996.08
2017-12-13T04:51:09.365Z,996.09
2017-12-13T04:52:09.385Z,996.10
2017-12-13T04:53:09.320Z,996.05
2017-12-13T04:54:10.316Z,996.06
2017-12-13T04:55:09.297Z,996.06
2017-12-13T04:56:09.273Z,996.00
2017-12-13T04:57:09.249Z,996.04
2017-12-13T04:58:09.239Z,996.01
2017-12-13T04:59:09.236Z,996.00
2017-12-13T05:00:09.281Z,995.91
2017-12-13T05:01:09.189Z,995.95
2017-12-13T05:02:09.167Z,995.90
2017-12-13T05:03:09.158Z,995.90
2017-12-13T05:04:09.132Z,995.87
2017-12-13T05:05:09.111Z,995.86
2017-12-13T05:06:09.136Z,995.86
2017-12-13T05:07:09.081Z,995.89
2017-12-13T05:08:09.060Z,995.88
2017-12-13T05:09:09.066Z,995.83
2017-12-13T05:10:09.037Z,995.82
2017-12-13T05:11:09.018Z,995.78
2017-12-13T05:12:09.019Z,995.83
2017-12-13T05:13:08.988Z,995.84
2017-12-13T05:14:08.961Z,995.85
2017-12-13T05:15:08.959Z,995.81
2017-12-13T05:16:08.932Z,995.73
2017-12-13T05:17:08.966Z,995.76
2017-12-13T05:18:08.909Z,995.74
2017-12-13T05:19:08.864Z,995.73
2017-12-13T05:20:08.849Z,995.70
2017-12-13T05:21:08.846Z,995.73
2017-12-13T05:22:08.809Z,995.72
2017-12-13T05:23:08.858Z,995.72
2017-12-13T05:24:08.783Z,995.68
2017-12-13T05:25:08.767Z,995.62
2017-12-13T05:26:08.738Z,995.65
2017-12-13T05:27:08.731Z,995.60
2017-12-13T05:28:08.699Z,995.61
2017-12-13T05:29:08.847Z,995.48
2017-12-13T05:30:08.681Z,995.52
2017-12-13T05:31:08.660Z,995.52
2017-12-13T05:32:08.641Z,995.52
2017-12-13T05:33:08.631Z,995.49
2017-12-13T05:34:08.602Z,995.45
2017-12-13T05:35:08.605Z,995.49
2017-12-13T05:36:08.609Z,995.42
2017-12-13T05:37:08.550Z,995.37
2017-12-13T05:38:08.542Z,995.37
2017-12-13T05:39:08.519Z,995.39
2017-12-13T05:40:08.511Z,995.41
2017-12-13T05:41:08.500Z,995.34
2017-12-13T05:42:08.466Z,995.34
2017-12-13T05:43:08.441Z,995.33
2017-12-13T05:44:08.432Z,995.35
2017-12-13T05:45:08.447Z,995.24
2017-12-13T05:46:08.445Z,995.27
2017-12-13T05:47:08.376Z,995.27
2017-12-13T05:48:08.356Z,995.26
2017-12-13T05:49:08.351Z,995.21
2017-12-13T05:50:08.321Z,995.18
2017-12-13T05:51:08.296Z,995.15
2017-12-13T05:52:08.346Z,995.09
2017-12-13T05:53:08.264Z,995.12
2017-12-13T05:54:08.264Z,995.12
2017-12-13T05:55:08.242Z,995.12
2017-12-13T05:56:08.209Z,995.09
2017-12-13T05:57:08.192Z,995.08
2017-12-13T05:58:08.818Z,995.07
2017-12-13T05:59:08.152Z,995.04
2017-12-13T06:00:08.138Z,994.99
2017-12-13T06:01:08.124Z,994.99
2017-12-13T06:02:08.103Z,994.96
2017-12-13T06:03:08.091Z,994.92
2017-12-13T06:04:08.200Z,994.95
2017-12-13T06:05:08.060Z,994.87
2017-12-13T06:06:08.051Z,994.97
2017-12-13T06:07:08.012Z,994.92
2017-12-13T06:08:08.061Z,994.91
2017-12-13T06:09:07.980Z,994.91
2017-12-13T06:10:07.967Z,994.88
2017-12-13T06:11:07.966Z,994.87
2017-12-13T06:12:07.939Z,994.87
2017-12-13T06:13:07.912Z,994.89
2017-12-13T06:14:07.965Z,994.88
2017-12-13T06:15:07.877Z,994.80
2017-12-13T06:16:07.862Z,994.81
2017-12-13T06:17:07.847Z,994.82
2017-12-13T06:18:07.824Z,994.81
2017-12-13T06:19:07.812Z,994.80
2017-12-13T06:20:07.865Z,994.71
2017-12-13T06:21:07.768Z,994.72
2017-12-13T06:22:07.773Z,994.64
2017-12-13T06:23:07.742Z,994.67
2017-12-13T06:24:07.744Z,994.68
2017-12-13T06:25:07.713Z,994.62
2017-12-13T06:26:07.719Z,994.63
2017-12-13T06:27:07.677Z,994.63
2017-12-13T06:28:07.712Z,994.58
2017-12-13T06:29:07.648Z,994.57
2017-12-13T06:30:07.618Z,994.61
2017-12-13T06:31:07.604Z,994.58
2017-12-13T06:32:07.576Z,994.60
2017-12-13T06:33:07.561Z,994.51
2017-12-13T06:34:07.583Z,994.54
2017-12-13T06:35:07.539Z,994.47
2017-12-13T06:36:07.512Z,994.46
2017-12-13T06:37:07.485Z,994.43
2017-12-13T06:38:07.538Z,994.40
2017-12-13T06:39:07.473Z,994.35
2017-12-13T06:40:07.442Z,994.34
2017-12-13T06:41:07.432Z,994.31
2017-12-13T06:42:07.417Z,994.35
2017-12-13T06:43:07.397Z,994.30
2017-12-13T06:44:07.431Z,994.30
2017-12-13T06:45:07.351Z,994.23
2017-12-13T06:46:07.334Z,994.27
2017-12-13T06:47:07.328Z,994.26
2017-12-13T06:48:07.308Z,994.24
2017-12-13T06:49:07.305Z,994.22
2017-12-13T06:50:07.328Z,994.26
2017-12-13T06:51:07.241Z,994.20
2017-12-13T06:52:07.245Z,994.21
2017-12-13T06:53:07.216Z,994.19
2017-12-13T06:54:07.198Z,994.23
2017-12-13T06:55:07.176Z,994.20
2017-12-13T06:56:07.234Z,994.17
2017-12-13T06:57:07.149Z,994.19
2017-12-13T06:58:07.116Z,994.12
2017-12-13T06:59:07.109Z,994.11
2017-12-13T07:00:07.079Z,994.07
2017-12-13T07:01:07.080Z,994.07
2017-12-13T07:02:07.082Z,994.08
2017-12-13T07:03:07.032Z,994.07
2017-12-13T07:04:07.015Z,994.09
2017-12-13T07:05:06.998Z,994.05
2017-12-13T07:06:06.981Z,994.05
2017-12-13T07:07:07.006Z,994.01
2017-12-13T07:08:06.944Z,994.01
2017-12-13T07:09:06.915Z,993.99
2017-12-13T07:10:06.919Z,993.98
2017-12-13T07:11:06.897Z,993.93
2017-12-13T07:12:06.940Z,993.94
2017-12-13T07:13:06.855Z,993.94
2017-12-13T07:14:06.845Z,993.87
2017-12-13T07:15:06.824Z,993.86
2017-12-13T07:16:06.841Z,993.78
2017-12-13T07:17:06.792Z,993.83
2017-12-13T07:18:06.894Z,993.81
2017-12-13T07:19:06.750Z,993.83
2017-12-13T07:20:06.727Z,993.81
2017-12-13T07:21:06.704Z,993.82
2017-12-13T07:22:06.695Z,993.76
2017-12-13T07:23:06.695Z,993.73
2017-12-13T07:24:06.710Z,993.72
2017-12-13T07:25:06.649Z,993.66
2017-12-13T07:26:06.634Z,993.76
2017-12-13T07:27:06.627Z,993.70
2017-12-13T07:28:06.656Z,993.66
2017-12-13T07:29:06.576Z,993.72
2017-12-13T07:30:06.551Z,993.70
2017-12-13T07:31:06.544Z,993.72
2017-12-13T07:32:06.528Z,993.69
2017-12-13T07:33:06.507Z,993.67
2017-12-13T07:34:06.527Z,993.67
2017-12-13T07:35:06.474Z,993.55
2017-12-13T07:36:06.482Z,993.57
2017-12-13T07:37:06.443Z,993.58
2017-12-13T07:38:06.426Z,993.54
2017-12-13T07:39:06.457Z,993.58
2017-12-13T07:40:06.389Z,993.54
2017-12-13T07:41:06.364Z,993.48
2017-12-13T07:42:06.348Z,993.49
2017-12-13T07:43:06.345Z,993.48
2017-12-13T07:44:06.306Z,993.46
2017-12-13T07:45:06.363Z,993.42
2017-12-13T07:46:06.295Z,993.44
2017-12-13T07:47:06.260Z,993.37
2017-12-13T07:48:06.233Z,993.39
2017-12-13T07:49:06.228Z,993.34
2017-12-13T07:50:06.213Z,993.32
2017-12-13T07:51:06.220Z,993.25
2017-12-13T07:52:06.163Z,993.30
2017-12-13T07:53:06.166Z,993.24
2017-12-13T07:54:06.132Z,993.22
2017-12-13T07:55:06.142Z,993.18
2017-12-13T07:56:06.098Z,993.18
2017-12-13T07:57:06.087Z,993.17
2017-12-13T07:58:06.063Z,993.13
2017-12-13T07:59:06.061Z,993.11
2017-12-13T08:00:06.100Z,993.14
2017-12-13T08:01:06.018Z,993.07
2017-12-13T08:02:06.003Z,993.08
2017-12-13T08:03:05.986Z,993.06
2017-12-13T08:04:05.970Z,993.00
2017-12-13T08:05:05.943Z,992.98
2017-12-13T08:06:05.979Z,992.90
2017-12-13T08:07:05.908Z,992.91
2017-12-13T08:08:05.887Z,992.88
2017-12-13T08:09:05.884Z,992.86
2017-12-13T08:10:05.855Z,992.79
2017-12-13T08:11:05.837Z,992.73
2017-12-13T08:12:05.854Z,992.71
2017-12-13T08:13:05.831Z,992.68
2017-12-13T08:14:05.804Z,992.65
2017-12-13T08:15:05.780Z,992.63
2017-12-13T08:16:05.755Z,992.57
2017-12-13T08:17:05.731Z,992.58
2017-12-13T08:18:05.775Z,992.63
2017-12-13T08:19:05.715Z,992.59
2017-12-13T08:20:05.684Z,992.64
2017-12-13T08:21:05.672Z,992.60
2017-12-13T08:22:05.667Z,992.58
2017-12-13T08:23:05.627Z,992.62
2017-12-13T08:24:05.663Z,992.54
2017-12-13T08:25:05.603Z,992.51
2017-12-13T08:26:05.601Z,992.51
2017-12-13T08:27:05.573Z,992.49
2017-12-13T08:28:05.544Z,992.37
2017-12-13T08:29:26.601Z,992.36
2017-12-13T08:30:05.514Z,992.36
2017-12-13T08:31:05.514Z,992.40
2017-12-13T08:32:05.478Z,992.39
2017-12-13T08:33:05.474Z,992.33
2017-12-13T08:34:05.437Z,992.30
2017-12-13T08:35:05.552Z,992.24
2017-12-13T08:36:05.417Z,992.24
2017-12-13T08:37:05.400Z,992.18
2017-12-13T08:38:05.381Z,992.20
2017-12-13T08:39:05.363Z,992.17
2017-12-13T08:40:05.359Z,992.10
2017-12-13T08:41:05.358Z,992.16
2017-12-13T08:42:05.324Z,992.04
2017-12-13T08:43:05.306Z,992.00
2017-12-13T08:44:11.254Z,992.02
2017-12-13T08:45:05.274Z,991.99
2017-12-13T08:46:05.251Z,991.99
2017-12-13T08:47:05.280Z,991.95
2017-12-13T08:48:05.210Z,991.96
2017-12-13T08:49:05.192Z,991.90
2017-12-13T08:50:05.173Z,991.94
2017-12-13T08:51:05.582Z,991.89
2017-12-13T08:52:06.056Z,991.90
2017-12-13T08:53:05.184Z,991.89
2017-12-13T08:54:05.785Z,991.89
2017-12-13T08:55:05.111Z,991.89
2017-12-13T08:56:05.080Z,991.91
2017-12-13T08:57:05.049Z,991.86
2017-12-13T08:58:05.049Z,991.85
2017-12-13T08:59:05.093Z,991.84
2017-12-13T09:00:05.013Z,991.85
2017-12-13T09:01:05.012Z,991.84
2017-12-13T09:02:04.987Z,991.81
2017-12-13T09:03:04.963Z,991.80
2017-12-13T09:04:04.961Z,991.77
2017-12-13T09:05:04.965Z,991.77
2017-12-13T09:06:04.913Z,991.66
2017-12-13T09:07:04.903Z,991.67
2017-12-13T09:08:04.866Z,991.67
2017-12-13T09:09:04.853Z,991.71
2017-12-13T09:10:04.899Z,991.73
2017-12-13T09:11:04.822Z,991.69
2017-12-13T09:12:04.805Z,991.68
2017-12-13T09:13:04.796Z,991.62
2017-12-13T09:14:04.775Z,991.67
2017-12-13T09:15:04.769Z,991.62
2017-12-13T09:16:04.773Z,991.58
2017-12-13T09:17:04.732Z,991.62
2017-12-13T09:18:04.711Z,991.58
2017-12-13T09:19:04.707Z,991.62
2017-12-13T09:20:04.670Z,991.56
2017-12-13T09:21:04.689Z,991.53
2017-12-13T09:22:04.644Z,991.47
2017-12-13T09:23:04.621Z,991.47
2017-12-13T09:24:04.686Z,991.42
2017-12-13T09:25:04.594Z,991.43
2017-12-13T09:26:04.634Z,991.45
2017-12-13T09:27:04.554Z,991.42
2017-12-13T09:28:04.556Z,991.40
2017-12-13T09:29:04.534Z,991.39
2017-12-13T09:30:04.528Z,991.36
2017-12-13T09:31:04.493Z,991.36
2017-12-13T09:32:04.555Z,991.36
2017-12-13T09:33:04.470Z,991.28
2017-12-13T09:34:04.450Z,991.34
2017-12-13T09:35:04.430Z,991.34
2017-12-13T09:36:04.417Z,991.37
2017-12-13T09:37:04.399Z,991.39
2017-12-13T09:38:04.461Z,991.34
2017-12-13T09:39:04.376Z,991.30
2017-12-13T09:40:04.343Z,991.26
2017-12-13T09:41:04.322Z,991.24
2017-12-13T09:42:04.309Z,991.21
2017-12-13T09:43:04.289Z,991.16
2017-12-13T09:44:04.332Z,991.12
2017-12-13T09:45:04.255Z,991.07
2017-12-13T09:46:04.245Z,991.12
2017-12-13T09:47:04.245Z,991.06
2017-12-13T09:48:04.200Z,991.02
2017-12-13T09:49:04.246Z,990.96
2017-12-13T09:50:04.183Z,990.96
2017-12-13T09:51:04.192Z,990.85
2017-12-13T09:52:04.148Z,990.88
2017-12-13T09:53:04.120Z,990.87
2017-12-13T09:54:04.106Z,990.79
2017-12-13T09:55:04.141Z,990.86
2017-12-13T09:56:04.149Z,990.73
2017-12-13T09:57:04.081Z,990.77
2017-12-13T09:58:04.083Z,990.74
2017-12-13T09:59:04.030Z,990.73
2017-12-13T10:00:04.000Z,990.65
2017-12-13T10:01:03.982Z,990.64
2017-12-13T10:02:04.021Z,990.60
2017-12-13T10:03:03.951Z,990.60
2017-12-13T10:04:03.960Z,990.52
2017-12-13T10:05:03.918Z,990.44
2017-12-13T10:06:03.917Z,990.50
2017-12-13T10:07:03.889Z,990.50
2017-12-13T10:08:03.903Z,990.45
2017-12-13T10:09:03.863Z,990.39
2017-12-13T10:10:04.389Z,990.32
2017-12-13T10:11:04.583Z,990.29
2017-12-13T10:12:08.850Z,990.24
2017-12-13T10:13:03.980Z,990.21
2017-12-13T10:14:04.388Z,990.20
2017-12-13T10:15:04.472Z,990.14
2017-12-13T10:16:04.479Z,990.16
2017-12-13T10:17:04.336Z,990.12
2017-12-13T10:18:03.807Z,990.08
2017-12-13T10:19:03.991Z,990.03
2017-12-13T10:20:04.620Z,990.06
2017-12-13T10:21:04.439Z,990.00
2017-12-13T10:22:03.656Z,989.94
2017-12-13T10:23:03.754Z,989.92
2017-12-13T10:24:03.658Z,989.83
2017-12-13T10:25:05.628Z,989.77
2017-12-13T10:26:04.337Z,989.78
2017-12-13T10:27:03.808Z,989.76
2017-12-13T10:28:03.573Z,989.68
2017-12-13T10:29:03.529Z,989.73
2017-12-13T10:30:03.527Z,989.74
2017-12-13T10:31:03.561Z,989.71
2017-12-13T10:32:03.491Z,989.67
2017-12-13T10:33:03.718Z,989.56
2017-12-13T10:34:03.450Z,989.58
2017-12-13T10:35:03.417Z,989.57
2017-12-13T10:36:03.407Z,989.51
2017-12-13T10:37:03.444Z,989.44
2017-12-13T10:38:03.362Z,989.45
2017-12-13T10:39:03.389Z,989.44
2017-12-13T10:40:03.345Z,989.35
2017-12-13T10:41:03.328Z,989.34
2017-12-13T10:42:03.460Z,989.22
2017-12-13T10:43:03.312Z,989.25
2017-12-13T10:44:03.269Z,989.17
2017-12-13T10:45:03.277Z,989.19
2017-12-13T10:46:03.305Z,989.10
2017-12-13T10:47:03.225Z,989.10
2017-12-13T10:48:03.215Z,989.11
2017-12-13T10:49:03.199Z,989.02
2017-12-13T10:50:03.188Z,989.01
2017-12-13T10:51:03.152Z,989.01
2017-12-13T10:52:03.174Z,988.91
2017-12-13T10:53:03.123Z,988.96
2017-12-13T10:54:03.127Z,988.83
2017-12-13T10:55:03.160Z,988.79
2017-12-13T10:56:03.085Z,988.82
2017-12-13T10:57:03.065Z,988.83
2017-12-13T10:58:03.030Z,988.79
2017-12-13T10:59:03.027Z,988.75
2017-12-13T11:00:03.008Z,988.68
2017-12-13T11:01:03.046Z,988.67
2017-12-13T11:02:02.990Z,988.67
2017-12-13T11:03:02.950Z,988.61
2017-12-13T11:04:02.949Z,988.57
2017-12-13T11:05:02.930Z,988.55
2017-12-13T11:06:02.900Z,988.55
2017-12-13T11:07:02.951Z,988.49
2017-12-13T11:08:03.629Z,988.43
2017-12-13T11:09:04.763Z,988.41
2017-12-13T11:10:03.405Z,988.35
2017-12-13T11:11:07.840Z,988.33
2017-12-13T11:12:03.234Z,988.26
2017-12-13T11:13:03.610Z,988.29
2017-12-13T11:14:02.832Z,988.27
2017-12-13T11:15:03.234Z,988.24
2017-12-13T11:16:03.448Z,988.08
2017-12-13T11:17:02.759Z,988.09
2017-12-13T11:18:02.707Z,988.01
2017-12-13T11:19:03.485Z,988.11
2017-12-13T11:20:02.730Z,988.00
2017-12-13T11:21:02.757Z,987.89
2017-12-13T11:22:03.476Z,987.88
2017-12-13T11:23:03.067Z,987.89
2017-12-13T11:24:02.620Z,987.84
2017-12-13T11:25:02.652Z,987.72
2017-12-13T11:26:02.580Z,987.70
2017-12-13T11:27:02.562Z,987.70
2017-12-13T11:28:03.406Z,987.69
2017-12-13T11:29:02.647Z,987.62
2017-12-13T11:30:02.520Z,987.52
2017-12-13T11:31:02.541Z,987.54
2017-12-13T11:32:02.483Z,987.52
2017-12-13T11:33:02.455Z,987.45
2017-12-13T11:34:02.461Z,987.44
2017-12-13T11:35:02.481Z,987.42
2017-12-13T11:36:02.408Z,987.38
2017-12-13T11:37:02.417Z,987.36
2017-12-13T11:38:02.366Z,987.34
2017-12-13T11:39:02.357Z,987.32
2017-12-13T11:40:02.436Z,987.30
2017-12-13T11:41:03.149Z,987.27
2017-12-13T11:42:02.303Z,987.29
2017-12-13T11:43:02.280Z,987.18
2017-12-13T11:44:02.281Z,987.15
2017-12-13T11:45:02.638Z,987.16
2017-12-13T11:46:04.194Z,987.13
2017-12-13T11:47:02.274Z,987.05
2017-12-13T11:48:03.059Z,987.05
2017-12-13T11:49:02.186Z,987.02
2017-12-13T11:50:02.168Z,986.91
2017-12-13T11:51:02.207Z,986.94
2017-12-13T11:52:02.145Z,986.83
2017-12-13T11:53:02.980Z,986.87
2017-12-13T11:54:02.104Z,986.87
2017-12-13T11:55:02.083Z,986.82
2017-12-13T11:56:02.074Z,986.75
2017-12-13T11:57:02.107Z,986.80
2017-12-13T11:58:02.419Z,986.73
2017-12-13T11:59:02.130Z,986.63
2017-12-13T12:00:02.075Z,986.64
2017-12-13T12:01:01.993Z,986.68
2017-12-13T12:02:01.996Z,986.58
2017-12-13T12:03:01.971Z,986.59
2017-12-13T12:04:01.935Z,986.56
2017-12-13T12:05:02.779Z,986.57
2017-12-13T12:06:02.704Z,986.51
2017-12-13T12:07:02.437Z,986.49
2017-12-13T12:08:01.923Z,986.44
2017-12-13T12:09:01.842Z,986.45
2017-12-13T12:10:01.946Z,986.35
2017-12-13T12:11:01.918Z,986.29
2017-12-13T12:12:02.044Z,986.25
2017-12-13T12:13:02.593Z,986.32
2017-12-13T12:14:04.307Z,986.25
2017-12-13T12:15:03.870Z,986.24
2017-12-13T12:16:02.143Z,986.19
2017-12-13T12:17:02.154Z,986.14
2017-12-13T12:18:02.567Z,986.14
2017-12-13T13:52:23.711Z,983.78
2017-12-13T13:53:15.719Z,983.83
2017-12-13T13:54:15.782Z,983.71
2017-12-13T13:55:15.773Z,983.76
2017-12-13T13:56:15.669Z,983.65
2017-12-13T13:57:17.431Z,983.74
2017-12-13T13:58:22.348Z,983.76
2017-12-13T13:59:18.773Z,983.65
2017-12-13T14:00:17.318Z,983.59
2017-12-13T14:01:17.315Z,983.64